sensor_id;sensor_type;location;lat;lon;timestamp;P1;durP1;ratioP1;P2;durP2;ratioP2
75928;SDS011;64606;44.062;2.986;2023-02-28T00:00:50;12.40;;;8.05;;
75928;SDS011;64606;44.062;2.986;2023-02-28T00:03:16;11.48;;;8.23;;
75928;SDS011;64606;44.062;2.986;2023-02-28T00:05:42;13.35;;;7.60;;
75928;SDS011;64606;44.062;2.986;2023-02-28T00:08:08;13.65;;;8.65;;
75928;SDS011;64606;44.062;2.986;2023-02-28T00:10:35;12.15;;;8.05;;
75928;SDS011;64606;44.062;2.986;2023-02-28T00:13:03;11.85;;;7.55;;
75928;SDS011;64606;44.062;2.986;2023-02-28T00:15:29;10.65;;;7.10;;
75928;SDS011;64606;44.062;2.986;2023-02-28T00:17:56;9.88;;;6.70;;
75928;SDS011;64606;44.062;2.986;2023-02-28T00:20:22;10.45;;;7.45;;
75928;SDS011;64606;44.062;2.986;2023-02-28T00:22:49;9.98;;;6.68;;
75928;SDS011;64606;44.062;2.986;2023-02-28T00:25:17;10.52;;;7.20;;
75928;SDS011;64606;44.062;2.986;2023-02-28T00:27:43;10.40;;;6.75;;
75928;SDS011;64606;44.062;2.986;2023-02-28T00:30:11;12.23;;;7.53;;
75928;SDS011;64606;44.062;2.986;2023-02-28T00:32:38;11.90;;;7.72;;
75928;SDS011;64606;44.062;2.986;2023-02-28T00:35:04;17.02;;;10.15;;
75928;SDS011;64606;44.062;2.986;2023-02-28T00:37:30;11.52;;;7.40;;
75928;SDS011;64606;44.062;2.986;2023-02-28T00:39:57;11.25;;;7.15;;
75928;SDS011;64606;44.062;2.986;2023-02-28T00:42:23;13.80;;;7.88;;
75928;SDS011;64606;44.062;2.986;2023-02-28T00:44:49;12.48;;;7.50;;
75928;SDS011;64606;44.062;2.986;2023-02-28T00:47:15;14.32;;;8.00;;
75928;SDS011;64606;44.062;2.986;2023-02-28T00:49:41;11.80;;;7.13;;
75928;SDS011;64606;44.062;2.986;2023-02-28T00:52:08;11.18;;;7.20;;
75928;SDS011;64606;44.062;2.986;2023-02-28T00:54:34;10.32;;;7.00;;
75928;SDS011;64606;44.062;2.986;2023-02-28T00:57:00;10.43;;;6.47;;
75928;SDS011;64606;44.062;2.986;2023-02-28T00:59:26;8.50;;;6.47;;
75928;SDS011;64606;44.062;2.986;2023-02-28T01:01:52;10.40;;;7.00;;
75928;SDS011;64606;44.062;2.986;2023-02-28T01:04:18;10.88;;;6.90;;
75928;SDS011;64606;44.062;2.986;2023-02-28T01:06:44;9.45;;;6.95;;
75928;SDS011;64606;44.062;2.986;2023-02-28T01:09:11;9.60;;;6.57;;
75928;SDS011;64606;44.062;2.986;2023-02-28T01:11:37;9.65;;;6.45;;
75928;SDS011;64606;44.062;2.986;2023-02-28T01:14:05;9.48;;;6.50;;
75928;SDS011;64606;44.062;2.986;2023-02-28T01:16:32;13.40;;;8.40;;
75928;SDS011;64606;44.062;2.986;2023-02-28T01:18:58;11.18;;;7.20;;
75928;SDS011;64606;44.062;2.986;2023-02-28T01:21:24;14.85;;;7.85;;
75928;SDS011;64606;44.062;2.986;2023-02-28T01:23:50;10.57;;;7.00;;
75928;SDS011;64606;44.062;2.986;2023-02-28T01:26:20;10.63;;;6.88;;
75928;SDS011;64606;44.062;2.986;2023-02-28T01:28:47;10.63;;;6.78;;
75928;SDS011;64606;44.062;2.986;2023-02-28T01:31:14;9.38;;;6.30;;
75928;SDS011;64606;44.062;2.986;2023-02-28T01:33:40;10.80;;;6.63;;
75928;SDS011;64606;44.062;2.986;2023-02-28T01:36:07;10.85;;;6.35;;
75928;SDS011;64606;44.062;2.986;2023-02-28T01:38:34;11.98;;;7.40;;
75928;SDS011;64606;44.062;2.986;2023-02-28T01:41:01;11.52;;;7.50;;
75928;SDS011;64606;44.062;2.986;2023-02-28T01:43:31;16.00;;;9.18;;
75928;SDS011;64606;44.062;2.986;2023-02-28T01:45:58;15.10;;;8.40;;
75928;SDS011;64606;44.062;2.986;2023-02-28T01:48:25;10.55;;;6.90;;
75928;SDS011;64606;44.062;2.986;2023-02-28T01:50:52;10.18;;;6.72;;
75928;SDS011;64606;44.062;2.986;2023-02-28T01:53:21;10.88;;;7.03;;
75928;SDS011;64606;44.062;2.986;2023-02-28T01:55:49;8.65;;;5.80;;
75928;SDS011;64606;44.062;2.986;2023-02-28T01:58:16;9.82;;;6.43;;
75928;SDS011;64606;44.062;2.986;2023-02-28T02:00:43;9.40;;;6.40;;
75928;SDS011;64606;44.062;2.986;2023-02-28T02:03:11;10.10;;;6.20;;
75928;SDS011;64606;44.062;2.986;2023-02-28T02:05:38;9.63;;;6.50;;
75928;SDS011;64606;44.062;2.986;2023-02-28T02:08:09;10.55;;;6.43;;
75928;SDS011;64606;44.062;2.986;2023-02-28T02:10:39;8.43;;;6.03;;
75928;SDS011;64606;44.062;2.986;2023-02-28T02:18:31;9.60;;;5.85;;
75928;SDS011;64606;44.062;2.986;2023-02-28T02:36:46;8.27;;;5.60;;
75928;SDS011;64606;44.062;2.986;2023-02-28T02:41:46;9.38;;;6.05;;
75928;SDS011;64606;44.062;2.986;2023-02-28T02:44:21;12.48;;;6.53;;
75928;SDS011;64606;44.062;2.986;2023-02-28T02:46:49;10.77;;;6.03;;
75928;SDS011;64606;44.062;2.986;2023-02-28T02:49:33;10.95;;;6.10;;
75928;SDS011;64606;44.062;2.986;2023-02-28T02:52:01;10.18;;;6.10;;
75928;SDS011;64606;44.062;2.986;2023-02-28T02:54:30;10.38;;;5.88;;
75928;SDS011;64606;44.062;2.986;2023-02-28T02:57:00;8.73;;;5.38;;
75928;SDS011;64606;44.062;2.986;2023-02-28T02:59:27;12.25;;;5.88;;
75928;SDS011;64606;44.062;2.986;2023-02-28T03:01:57;10.77;;;5.20;;
75928;SDS011;64606;44.062;2.986;2023-02-28T03:04:26;7.55;;;5.05;;
75928;SDS011;64606;44.062;2.986;2023-02-28T03:06:54;9.48;;;5.90;;
75928;SDS011;64606;44.062;2.986;2023-02-28T03:09:24;8.57;;;5.93;;
75928;SDS011;64606;44.062;2.986;2023-02-28T03:11:51;9.48;;;5.60;;
75928;SDS011;64606;44.062;2.986;2023-02-28T03:14:22;8.90;;;6.05;;
75928;SDS011;64606;44.062;2.986;2023-02-28T03:19:33;10.88;;;6.05;;
75928;SDS011;64606;44.062;2.986;2023-02-28T03:22:14;9.20;;;5.10;;
75928;SDS011;64606;44.062;2.986;2023-02-28T03:24:57;8.00;;;4.97;;
75928;SDS011;64606;44.062;2.986;2023-02-28T03:27:30;8.50;;;5.10;;
75928;SDS011;64606;44.062;2.986;2023-02-28T03:29:58;10.27;;;5.70;;
75928;SDS011;64606;44.062;2.986;2023-02-28T03:32:36;7.25;;;4.90;;
75928;SDS011;64606;44.062;2.986;2023-02-28T03:35:09;8.52;;;5.13;;
75928;SDS011;64606;44.062;2.986;2023-02-28T03:37:38;7.93;;;5.40;;
75928;SDS011;64606;44.062;2.986;2023-02-28T03:40:09;9.05;;;5.68;;
75928;SDS011;64606;44.062;2.986;2023-02-28T03:42:37;9.30;;;5.47;;
75928;SDS011;64606;44.062;2.986;2023-02-28T03:45:08;7.80;;;5.40;;
75928;SDS011;64606;44.062;2.986;2023-02-28T03:47:36;10.77;;;5.47;;
75928;SDS011;64606;44.062;2.986;2023-02-28T03:50:07;8.00;;;5.45;;
75928;SDS011;64606;44.062;2.986;2023-02-28T03:52:35;7.50;;;5.28;;
75928;SDS011;64606;44.062;2.986;2023-02-28T03:55:06;9.65;;;5.60;;
75928;SDS011;64606;44.062;2.986;2023-02-28T03:57:44;8.55;;;5.50;;
75928;SDS011;64606;44.062;2.986;2023-02-28T04:02:43;9.73;;;5.47;;
75928;SDS011;64606;44.062;2.986;2023-02-28T04:05:09;8.32;;;5.72;;
75928;SDS011;64606;44.062;2.986;2023-02-28T04:07:35;9.95;;;5.05;;
75928;SDS011;64606;44.062;2.986;2023-02-28T04:10:02;9.85;;;5.75;;
75928;SDS011;64606;44.062;2.986;2023-02-28T04:12:28;9.90;;;5.63;;
75928;SDS011;64606;44.062;2.986;2023-02-28T04:14:55;10.15;;;5.53;;
75928;SDS011;64606;44.062;2.986;2023-02-28T04:17:21;9.70;;;5.30;;
75928;SDS011;64606;44.062;2.986;2023-02-28T04:19:47;8.43;;;5.00;;
75928;SDS011;64606;44.062;2.986;2023-02-28T04:22:13;10.93;;;5.80;;
75928;SDS011;64606;44.062;2.986;2023-02-28T04:24:39;7.47;;;5.32;;
75928;SDS011;64606;44.062;2.986;2023-02-28T04:27:06;7.07;;;5.25;;
75928;SDS011;64606;44.062;2.986;2023-02-28T04:29:32;10.40;;;5.70;;
75928;SDS011;64606;44.062;2.986;2023-02-28T04:31:59;9.13;;;5.70;;
75928;SDS011;64606;44.062;2.986;2023-02-28T04:34:26;9.30;;;5.65;;
75928;SDS011;64606;44.062;2.986;2023-02-28T04:36:52;8.65;;;5.25;;
75928;SDS011;64606;44.062;2.986;2023-02-28T04:39:20;9.73;;;4.72;;
75928;SDS011;64606;44.062;2.986;2023-02-28T04:41:46;7.75;;;4.78;;
75928;SDS011;64606;44.062;2.986;2023-02-28T04:44:12;7.13;;;4.82;;
75928;SDS011;64606;44.062;2.986;2023-02-28T04:46:38;9.68;;;5.13;;
75928;SDS011;64606;44.062;2.986;2023-02-28T04:49:04;9.60;;;4.85;;
75928;SDS011;64606;44.062;2.986;2023-02-28T04:51:31;8.23;;;5.35;;
75928;SDS011;64606;44.062;2.986;2023-02-28T04:53:57;12.48;;;6.32;;
75928;SDS011;64606;44.062;2.986;2023-02-28T04:56:23;11.45;;;5.95;;
75928;SDS011;64606;44.062;2.986;2023-02-28T04:58:50;11.57;;;5.65;;
75928;SDS011;64606;44.062;2.986;2023-02-28T05:01:22;7.47;;;5.03;;
75928;SDS011;64606;44.062;2.986;2023-02-28T05:03:49;9.38;;;5.43;;
75928;SDS011;64606;44.062;2.986;2023-02-28T05:06:15;8.43;;;5.50;;
75928;SDS011;64606;44.062;2.986;2023-02-28T05:08:42;8.57;;;5.35;;
75928;SDS011;64606;44.062;2.986;2023-02-28T05:11:13;7.80;;;5.28;;
75928;SDS011;64606;44.062;2.986;2023-02-28T05:13:40;8.90;;;5.28;;
75928;SDS011;64606;44.062;2.986;2023-02-28T05:16:06;9.63;;;5.38;;
75928;SDS011;64606;44.062;2.986;2023-02-28T05:18:32;10.13;;;6.25;;
75928;SDS011;64606;44.062;2.986;2023-02-28T05:20:59;8.25;;;5.55;;
75928;SDS011;64606;44.062;2.986;2023-02-28T05:23:28;8.93;;;5.80;;
75928;SDS011;64606;44.062;2.986;2023-02-28T05:25:54;11.55;;;5.82;;
75928;SDS011;64606;44.062;2.986;2023-02-28T05:28:21;8.57;;;5.40;;
75928;SDS011;64606;44.062;2.986;2023-02-28T05:30:47;8.77;;;5.40;;
75928;SDS011;64606;44.062;2.986;2023-02-28T05:33:13;9.85;;;5.70;;
75928;SDS011;64606;44.062;2.986;2023-02-28T05:35:40;9.25;;;5.65;;
75928;SDS011;64606;44.062;2.986;2023-02-28T05:38:07;8.40;;;5.30;;
75928;SDS011;64606;44.062;2.986;2023-02-28T05:40:34;10.05;;;5.43;;
75928;SDS011;64606;44.062;2.986;2023-02-28T05:43:00;8.88;;;5.18;;
75928;SDS011;64606;44.062;2.986;2023-02-28T05:45:26;9.90;;;5.90;;
75928;SDS011;64606;44.062;2.986;2023-02-28T05:47:53;9.73;;;5.50;;
75928;SDS011;64606;44.062;2.986;2023-02-28T05:50:20;8.60;;;5.45;;
75928;SDS011;64606;44.062;2.986;2023-02-28T05:52:49;10.32;;;5.68;;
75928;SDS011;64606;44.062;2.986;2023-02-28T05:55:16;10.32;;;6.43;;
75928;SDS011;64606;44.062;2.986;2023-02-28T05:57:42;10.35;;;5.90;;
75928;SDS011;64606;44.062;2.986;2023-02-28T06:00:08;8.98;;;5.35;;
75928;SDS011;64606;44.062;2.986;2023-02-28T06:02:35;9.35;;;5.68;;
75928;SDS011;64606;44.062;2.986;2023-02-28T06:05:01;8.85;;;5.60;;
75928;SDS011;64606;44.062;2.986;2023-02-28T06:07:27;9.43;;;5.90;;
75928;SDS011;64606;44.062;2.986;2023-02-28T06:09:53;9.25;;;6.18;;
75928;SDS011;64606;44.062;2.986;2023-02-28T06:12:19;9.82;;;6.00;;
75928;SDS011;64606;44.062;2.986;2023-02-28T06:14:45;10.48;;;6.35;;
75928;SDS011;64606;44.062;2.986;2023-02-28T06:17:11;9.30;;;6.22;;
75928;SDS011;64606;44.062;2.986;2023-02-28T06:19:37;12.65;;;6.47;;
75928;SDS011;64606;44.062;2.986;2023-02-28T06:22:04;9.93;;;6.47;;
75928;SDS011;64606;44.062;2.986;2023-02-28T06:24:31;11.77;;;6.43;;
75928;SDS011;64606;44.062;2.986;2023-02-28T06:26:57;10.02;;;6.38;;
75928;SDS011;64606;44.062;2.986;2023-02-28T06:29:30;10.43;;;6.20;;
75928;SDS011;64606;44.062;2.986;2023-02-28T06:31:56;9.75;;;6.30;;
75928;SDS011;64606;44.062;2.986;2023-02-28T06:34:22;12.35;;;6.50;;
75928;SDS011;64606;44.062;2.986;2023-02-28T06:36:49;10.75;;;6.07;;
75928;SDS011;64606;44.062;2.986;2023-02-28T06:39:16;15.05;;;9.00;;
75928;SDS011;64606;44.062;2.986;2023-02-28T06:41:42;18.73;;;11.00;;
75928;SDS011;64606;44.062;2.986;2023-02-28T06:44:17;24.15;;;12.18;;
75928;SDS011;64606;44.062;2.986;2023-02-28T06:46:44;27.05;;;13.80;;
75928;SDS011;64606;44.062;2.986;2023-02-28T06:49:10;26.05;;;13.68;;
75928;SDS011;64606;44.062;2.986;2023-02-28T06:51:38;20.20;;;10.98;;
75928;SDS011;64606;44.062;2.986;2023-02-28T06:54:04;12.15;;;7.75;;
75928;SDS011;64606;44.062;2.986;2023-02-28T06:56:34;13.65;;;7.05;;
75928;SDS011;64606;44.062;2.986;2023-02-28T06:59:00;11.32;;;7.40;;
75928;SDS011;64606;44.062;2.986;2023-02-28T07:01:26;11.95;;;6.68;;
75928;SDS011;64606;44.062;2.986;2023-02-28T07:03:53;11.93;;;6.18;;
75928;SDS011;64606;44.062;2.986;2023-02-28T07:06:20;9.73;;;6.00;;
75928;SDS011;64606;44.062;2.986;2023-02-28T07:08:47;14.57;;;6.82;;
75928;SDS011;64606;44.062;2.986;2023-02-28T07:11:14;10.15;;;6.70;;
75928;SDS011;64606;44.062;2.986;2023-02-28T07:13:40;19.00;;;9.02;;
75928;SDS011;64606;44.062;2.986;2023-02-28T07:16:07;24.00;;;9.25;;
75928;SDS011;64606;44.062;2.986;2023-02-28T07:18:35;67.78;;;24.45;;
75928;SDS011;64606;44.062;2.986;2023-02-28T07:21:02;19.50;;;9.73;;
75928;SDS011;64606;44.062;2.986;2023-02-28T07:23:28;17.13;;;7.93;;
75928;SDS011;64606;44.062;2.986;2023-02-28T07:25:54;15.98;;;8.77;;
75928;SDS011;64606;44.062;2.986;2023-02-28T07:28:20;10.55;;;6.88;;
75928;SDS011;64606;44.062;2.986;2023-02-28T07:30:46;14.68;;;7.30;;
75928;SDS011;64606;44.062;2.986;2023-02-28T07:33:13;11.20;;;7.15;;
75928;SDS011;64606;44.062;2.986;2023-02-28T07:35:39;11.27;;;7.07;;
75928;SDS011;64606;44.062;2.986;2023-02-28T07:38:05;13.38;;;7.55;;
75928;SDS011;64606;44.062;2.986;2023-02-28T07:40:35;11.27;;;6.65;;
75928;SDS011;64606;44.062;2.986;2023-02-28T07:43:02;12.35;;;6.82;;
75928;SDS011;64606;44.062;2.986;2023-02-28T07:45:29;9.07;;;6.18;;
75928;SDS011;64606;44.062;2.986;2023-02-28T07:47:56;12.93;;;6.90;;
75928;SDS011;64606;44.062;2.986;2023-02-28T07:50:22;11.82;;;6.75;;
75928;SDS011;64606;44.062;2.986;2023-02-28T07:52:49;12.30;;;7.65;;
75928;SDS011;64606;44.062;2.986;2023-02-28T07:55:15;11.07;;;7.85;;
75928;SDS011;64606;44.062;2.986;2023-02-28T07:57:41;17.42;;;8.68;;
75928;SDS011;64606;44.062;2.986;2023-02-28T08:00:09;20.48;;;11.68;;
75928;SDS011;64606;44.062;2.986;2023-02-28T08:02:35;15.60;;;9.98;;
75928;SDS011;64606;44.062;2.986;2023-02-28T08:05:02;12.98;;;7.45;;
75928;SDS011;64606;44.062;2.986;2023-02-28T08:07:28;23.20;;;10.55;;
75928;SDS011;64606;44.062;2.986;2023-02-28T08:09:54;20.15;;;9.45;;
75928;SDS011;64606;44.062;2.986;2023-02-28T08:12:20;83.35;;;29.85;;
75928;SDS011;64606;44.062;2.986;2023-02-28T08:14:46;22.08;;;10.15;;
75928;SDS011;64606;44.062;2.986;2023-02-28T08:17:12;20.33;;;10.43;;
75928;SDS011;64606;44.062;2.986;2023-02-28T08:19:38;78.03;;;27.60;;
75928;SDS011;64606;44.062;2.986;2023-02-28T08:22:04;13.35;;;7.13;;
75928;SDS011;64606;44.062;2.986;2023-02-28T08:24:31;11.48;;;6.70;;
75928;SDS011;64606;44.062;2.986;2023-02-28T08:26:58;14.73;;;7.20;;
75928;SDS011;64606;44.062;2.986;2023-02-28T08:29:24;15.85;;;7.85;;
75928;SDS011;64606;44.062;2.986;2023-02-28T08:31:50;49.53;;;19.23;;
75928;SDS011;64606;44.062;2.986;2023-02-28T08:34:16;67.53;;;25.55;;
75928;SDS011;64606;44.062;2.986;2023-02-28T08:36:43;29.70;;;13.45;;
75928;SDS011;64606;44.062;2.986;2023-02-28T08:39:11;15.45;;;7.53;;
75928;SDS011;64606;44.062;2.986;2023-02-28T08:41:37;12.48;;;7.43;;
75928;SDS011;64606;44.062;2.986;2023-02-28T08:44:03;19.40;;;9.88;;
75928;SDS011;64606;44.062;2.986;2023-02-28T08:46:29;16.77;;;8.43;;
75928;SDS011;64606;44.062;2.986;2023-02-28T08:48:56;26.42;;;12.63;;
75928;SDS011;64606;44.062;2.986;2023-02-28T08:51:25;16.15;;;9.15;;
75928;SDS011;64606;44.062;2.986;2023-02-28T08:53:54;12.75;;;8.18;;
75928;SDS011;64606;44.062;2.986;2023-02-28T08:56:21;11.85;;;7.65;;
75928;SDS011;64606;44.062;2.986;2023-02-28T08:58:48;11.95;;;7.53;;
75928;SDS011;64606;44.062;2.986;2023-02-28T09:01:16;10.98;;;7.13;;
75928;SDS011;64606;44.062;2.986;2023-02-28T09:03:42;14.50;;;8.20;;
75928;SDS011;64606;44.062;2.986;2023-02-28T09:06:09;13.07;;;7.60;;
75928;SDS011;64606;44.062;2.986;2023-02-28T09:08:35;10.65;;;7.43;;
75928;SDS011;64606;44.062;2.986;2023-02-28T09:11:02;14.13;;;7.68;;
75928;SDS011;64606;44.062;2.986;2023-02-28T09:13:29;12.18;;;7.68;;
75928;SDS011;64606;44.062;2.986;2023-02-28T09:15:59;10.57;;;7.32;;
75928;SDS011;64606;44.062;2.986;2023-02-28T09:18:26;13.32;;;8.68;;
75928;SDS011;64606;44.062;2.986;2023-02-28T09:20:52;18.13;;;11.70;;
75928;SDS011;64606;44.062;2.986;2023-02-28T09:23:18;11.15;;;7.10;;
75928;SDS011;64606;44.062;2.986;2023-02-28T09:25:45;12.35;;;7.93;;
75928;SDS011;64606;44.062;2.986;2023-02-28T09:28:12;16.95;;;9.20;;
75928;SDS011;64606;44.062;2.986;2023-02-28T09:30:40;12.55;;;6.78;;
75928;SDS011;64606;44.062;2.986;2023-02-28T09:33:06;18.58;;;10.52;;
75928;SDS011;64606;44.062;2.986;2023-02-28T09:35:33;11.20;;;6.93;;
75928;SDS011;64606;44.062;2.986;2023-02-28T09:37:59;16.40;;;9.60;;
75928;SDS011;64606;44.062;2.986;2023-02-28T09:40:27;13.68;;;8.35;;
75928;SDS011;64606;44.062;2.986;2023-02-28T09:42:54;11.75;;;8.13;;
75928;SDS011;64606;44.062;2.986;2023-02-28T09:47:50;11.48;;;6.40;;
75928;SDS011;64606;44.062;2.986;2023-02-28T09:50:21;10.75;;;6.30;;
75928;SDS011;64606;44.062;2.986;2023-02-28T09:52:49;10.13;;;6.97;;
75928;SDS011;64606;44.062;2.986;2023-02-28T09:57:42;12.30;;;7.15;;
75928;SDS011;64606;44.062;2.986;2023-02-28T10:00:16;9.93;;;6.40;;
75928;SDS011;64606;44.062;2.986;2023-02-28T10:05:20;13.27;;;7.07;;
75928;SDS011;64606;44.062;2.986;2023-02-28T10:10:24;14.27;;;6.43;;
75928;SDS011;64606;44.062;2.986;2023-02-28T10:12:52;11.40;;;6.68;;
75928;SDS011;64606;44.062;2.986;2023-02-28T10:15:19;8.55;;;6.10;;
75928;SDS011;64606;44.062;2.986;2023-02-28T10:17:47;10.43;;;6.70;;
75928;SDS011;64606;44.062;2.986;2023-02-28T10:20:17;9.35;;;6.05;;
75928;SDS011;64606;44.062;2.986;2023-02-28T10:23:04;8.95;;;6.05;;
75928;SDS011;64606;44.062;2.986;2023-02-28T10:25:35;32.13;;;16.73;;
75928;SDS011;64606;44.062;2.986;2023-02-28T10:28:09;12.55;;;8.20;;
75928;SDS011;64606;44.062;2.986;2023-02-28T10:30:39;10.05;;;6.95;;
75928;SDS011;64606;44.062;2.986;2023-02-28T10:33:08;9.85;;;6.38;;
75928;SDS011;64606;44.062;2.986;2023-02-28T10:35:42;9.43;;;5.57;;
75928;SDS011;64606;44.062;2.986;2023-02-28T10:38:12;10.65;;;6.80;;
75928;SDS011;64606;44.062;2.986;2023-02-28T10:40:40;8.93;;;6.53;;
75928;SDS011;64606;44.062;2.986;2023-02-28T10:43:27;9.07;;;6.13;;
75928;SDS011;64606;44.062;2.986;2023-02-28T10:48:47;8.57;;;6.70;;
75928;SDS011;64606;44.062;2.986;2023-02-28T10:51:16;11.32;;;6.75;;
75928;SDS011;64606;44.062;2.986;2023-02-28T10:58:52;10.18;;;6.50;;
75928;SDS011;64606;44.062;2.986;2023-02-28T11:04:00;11.02;;;7.03;;
75928;SDS011;64606;44.062;2.986;2023-02-28T11:06:30;16.88;;;9.65;;
75928;SDS011;64606;44.062;2.986;2023-02-28T11:08:58;16.33;;;8.57;;
75928;SDS011;64606;44.062;2.986;2023-02-28T11:11:25;12.20;;;7.53;;
75928;SDS011;64606;44.062;2.986;2023-02-28T11:13:55;15.15;;;6.65;;
75928;SDS011;64606;44.062;2.986;2023-02-28T11:16:22;8.88;;;6.15;;
75928;SDS011;64606;44.062;2.986;2023-02-28T11:18:57;11.02;;;6.47;;
75928;SDS011;64606;44.062;2.986;2023-02-28T11:23:51;11.70;;;7.05;;
75928;SDS011;64606;44.062;2.986;2023-02-28T11:26:34;9.43;;;6.25;;
75928;SDS011;64606;44.062;2.986;2023-02-28T11:29:17;12.77;;;7.90;;
75928;SDS011;64606;44.062;2.986;2023-02-28T11:31:49;11.73;;;6.90;;
75928;SDS011;64606;44.062;2.986;2023-02-28T11:34:26;35.72;;;21.88;;
75928;SDS011;64606;44.062;2.986;2023-02-28T11:36:54;10.73;;;6.57;;
75928;SDS011;64606;44.062;2.986;2023-02-28T11:39:21;11.98;;;7.70;;
75928;SDS011;64606;44.062;2.986;2023-02-28T11:46:51;21.73;;;14.43;;
75928;SDS011;64606;44.062;2.986;2023-02-28T12:03:01;11.60;;;6.78;;
75928;SDS011;64606;44.062;2.986;2023-02-28T12:05:33;18.73;;;12.23;;
75928;SDS011;64606;44.062;2.986;2023-02-28T12:08:11;28.08;;;17.25;;
75928;SDS011;64606;44.062;2.986;2023-02-28T12:10:51;8.23;;;6.03;;
75928;SDS011;64606;44.062;2.986;2023-02-28T12:13:24;10.65;;;6.32;;
75928;SDS011;64606;44.062;2.986;2023-02-28T12:21:31;9.55;;;6.68;;
75928;SDS011;64606;44.062;2.986;2023-02-28T12:24:13;8.85;;;6.55;;
75928;SDS011;64606;44.062;2.986;2023-02-28T12:26:42;15.35;;;7.60;;
75928;SDS011;64606;44.062;2.986;2023-02-28T12:29:22;26.70;;;13.90;;
75928;SDS011;64606;44.062;2.986;2023-02-28T12:31:50;30.02;;;17.30;;
75928;SDS011;64606;44.062;2.986;2023-02-28T12:34:31;9.55;;;5.93;;
75928;SDS011;64606;44.062;2.986;2023-02-28T12:37:00;8.73;;;5.78;;
75928;SDS011;64606;44.062;2.986;2023-02-28T12:39:29;9.85;;;6.53;;
75928;SDS011;64606;44.062;2.986;2023-02-28T12:44:33;10.25;;;7.10;;
75928;SDS011;64606;44.062;2.986;2023-02-28T12:47:04;9.88;;;6.40;;
75928;SDS011;64606;44.062;2.986;2023-02-28T12:49:33;10.82;;;6.35;;
75928;SDS011;64606;44.062;2.986;2023-02-28T12:52:00;10.43;;;7.05;;
75928;SDS011;64606;44.062;2.986;2023-02-28T12:54:44;9.80;;;6.22;;
75928;SDS011;64606;44.062;2.986;2023-02-28T13:09:57;29.02;;;16.10;;
75928;SDS011;64606;44.062;2.986;2023-02-28T13:12:25;31.20;;;15.95;;
75928;SDS011;64606;44.062;2.986;2023-02-28T13:15:01;18.17;;;10.10;;
75928;SDS011;64606;44.062;2.986;2023-02-28T13:17:28;20.67;;;12.25;;
75928;SDS011;64606;44.062;2.986;2023-02-28T13:22:36;16.58;;;10.07;;
75928;SDS011;64606;44.062;2.986;2023-02-28T13:25:14;14.15;;;7.20;;
75928;SDS011;64606;44.062;2.986;2023-02-28T13:27:50;12.98;;;8.77;;
75928;SDS011;64606;44.062;2.986;2023-02-28T13:38:35;9.60;;;6.53;;
75928;SDS011;64606;44.062;2.986;2023-02-28T13:44:08;11.70;;;7.38;;
75928;SDS011;64606;44.062;2.986;2023-02-28T13:46:33;13.65;;;7.97;;
75928;SDS011;64606;44.062;2.986;2023-02-28T13:49:44;11.68;;;7.20;;
75928;SDS011;64606;44.062;2.986;2023-02-28T13:51:49;12.63;;;7.45;;
75928;SDS011;64606;44.062;2.986;2023-02-28T14:04:53;10.02;;;7.10;;
75928;SDS011;64606;44.062;2.986;2023-02-28T14:07:25;13.23;;;7.00;;
75928;SDS011;64606;44.062;2.986;2023-02-28T14:09:57;14.40;;;8.05;;
75928;SDS011;64606;44.062;2.986;2023-02-28T14:18:03;19.27;;;9.93;;
75928;SDS011;64606;44.062;2.986;2023-02-28T14:20:31;9.25;;;6.47;;
75928;SDS011;64606;44.062;2.986;2023-02-28T14:31:06;11.82;;;6.80;;
75928;SDS011;64606;44.062;2.986;2023-02-28T14:38:31;10.30;;;6.38;;
75928;SDS011;64606;44.062;2.986;2023-02-28T14:40:58;11.30;;;6.10;;
75928;SDS011;64606;44.062;2.986;2023-02-28T14:43:27;10.60;;;5.85;;
75928;SDS011;64606;44.062;2.986;2023-02-28T14:45:57;13.63;;;5.75;;
75928;SDS011;64606;44.062;2.986;2023-02-28T14:48:24;8.70;;;5.97;;
75928;SDS011;64606;44.062;2.986;2023-02-28T14:50:51;8.25;;;5.57;;
75928;SDS011;64606;44.062;2.986;2023-02-28T14:53:19;10.18;;;5.82;;
75928;SDS011;64606;44.062;2.986;2023-02-28T14:55:46;8.70;;;5.40;;
75928;SDS011;64606;44.062;2.986;2023-02-28T14:58:23;9.70;;;5.13;;
75928;SDS011;64606;44.062;2.986;2023-02-28T15:00:50;7.80;;;5.65;;
75928;SDS011;64606;44.062;2.986;2023-02-28T15:06:03;14.43;;;7.25;;
75928;SDS011;64606;44.062;2.986;2023-02-28T15:08:31;10.70;;;6.18;;
75928;SDS011;64606;44.062;2.986;2023-02-28T15:11:02;11.27;;;6.20;;
75928;SDS011;64606;44.062;2.986;2023-02-28T15:13:38;9.00;;;5.80;;
75928;SDS011;64606;44.062;2.986;2023-02-28T15:16:06;9.45;;;6.28;;
75928;SDS011;64606;44.062;2.986;2023-02-28T15:21:20;13.68;;;5.97;;
75928;SDS011;64606;44.062;2.986;2023-02-28T15:24:10;10.07;;;6.25;;
75928;SDS011;64606;44.062;2.986;2023-02-28T15:26:34;18.98;;;7.45;;
75928;SDS011;64606;44.062;2.986;2023-02-28T15:29:04;12.77;;;7.18;;
75928;SDS011;64606;44.062;2.986;2023-02-28T15:31:35;9.68;;;6.18;;
75928;SDS011;64606;44.062;2.986;2023-02-28T15:34:05;11.30;;;5.90;;
75928;SDS011;64606;44.062;2.986;2023-02-28T15:36:33;11.73;;;6.28;;
75928;SDS011;64606;44.062;2.986;2023-02-28T15:39:02;14.25;;;7.55;;
75928;SDS011;64606;44.062;2.986;2023-02-28T15:41:30;11.68;;;6.72;;
75928;SDS011;64606;44.062;2.986;2023-02-28T15:47:27;10.18;;;6.18;;
75928;SDS011;64606;44.062;2.986;2023-02-28T15:49:28;9.63;;;6.15;;
75928;SDS011;64606;44.062;2.986;2023-02-28T15:51:56;8.45;;;5.78;;
75928;SDS011;64606;44.062;2.986;2023-02-28T15:54:24;9.13;;;6.00;;
75928;SDS011;64606;44.062;2.986;2023-02-28T15:56:53;10.30;;;6.72;;
75928;SDS011;64606;44.062;2.986;2023-02-28T15:59:27;70.10;;;31.42;;
75928;SDS011;64606;44.062;2.986;2023-02-28T16:02:11;133.73;;;59.75;;
75928;SDS011;64606;44.062;2.986;2023-02-28T16:04:53;167.40;;;70.07;;
75928;SDS011;64606;44.062;2.986;2023-02-28T16:07:20;116.55;;;50.10;;
75928;SDS011;64606;44.062;2.986;2023-02-28T16:09:46;59.88;;;28.17;;
75928;SDS011;64606;44.062;2.986;2023-02-28T16:12:13;37.58;;;21.98;;
75928;SDS011;64606;44.062;2.986;2023-02-28T16:14:39;9.82;;;5.85;;
75928;SDS011;64606;44.062;2.986;2023-02-28T16:17:06;10.25;;;6.40;;
75928;SDS011;64606;44.062;2.986;2023-02-28T16:19:36;27.50;;;13.75;;
75928;SDS011;64606;44.062;2.986;2023-02-28T16:22:02;11.80;;;8.52;;
75928;SDS011;64606;44.062;2.986;2023-02-28T16:24:28;22.10;;;12.60;;
75928;SDS011;64606;44.062;2.986;2023-02-28T16:26:54;27.08;;;14.13;;
75928;SDS011;64606;44.062;2.986;2023-02-28T16:29:23;95.18;;;40.38;;
75928;SDS011;64606;44.062;2.986;2023-02-28T16:31:50;26.70;;;13.27;;
75928;SDS011;64606;44.062;2.986;2023-02-28T16:34:16;27.33;;;14.20;;
75928;SDS011;64606;44.062;2.986;2023-02-28T16:36:42;16.08;;;8.95;;
75928;SDS011;64606;44.062;2.986;2023-02-28T16:39:11;10.23;;;5.88;;
75928;SDS011;64606;44.062;2.986;2023-02-28T16:41:37;11.20;;;5.82;;
75928;SDS011;64606;44.062;2.986;2023-02-28T16:44:09;10.30;;;6.03;;
75928;SDS011;64606;44.062;2.986;2023-02-28T16:46:36;9.52;;;6.60;;
75928;SDS011;64606;44.062;2.986;2023-02-28T16:49:02;10.05;;;5.75;;
75928;SDS011;64606;44.062;2.986;2023-02-28T16:51:28;7.85;;;5.72;;
75928;SDS011;64606;44.062;2.986;2023-02-28T16:53:55;10.00;;;6.18;;
75928;SDS011;64606;44.062;2.986;2023-02-28T16:56:22;8.60;;;5.78;;
75928;SDS011;64606;44.062;2.986;2023-02-28T16:58:49;10.15;;;6.00;;
75928;SDS011;64606;44.062;2.986;2023-02-28T17:01:16;9.77;;;6.20;;
75928;SDS011;64606;44.062;2.986;2023-02-28T17:03:47;10.02;;;6.10;;
75928;SDS011;64606;44.062;2.986;2023-02-28T17:06:23;10.98;;;5.90;;
75928;SDS011;64606;44.062;2.986;2023-02-28T17:08:50;9.07;;;6.20;;